createdAt,value
2018-07-12T00:01:30.384Z,9.20
2018-07-12T00:03:57.775Z,9.20
2018-07-12T00:06:25.391Z,9.30
2018-07-12T00:08:52.646Z,9.30
2018-07-12T00:11:19.931Z,9.40
2018-07-12T00:13:47.412Z,9.40
2018-07-12T00:16:14.870Z,9.40
2018-07-12T00:18:42.496Z,9.40
2018-07-12T00:21:10.088Z,9.50
2018-07-12T00:23:37.468Z,9.50
2018-07-12T00:26:05.030Z,9.50
2018-07-12T00:28:32.410Z,9.50
2018-07-12T00:30:59.830Z,9.40
2018-07-12T00:33:27.206Z,9.40
2018-07-12T00:35:54.623Z,9.40
2018-07-12T00:38:22.001Z,9.40
2018-07-12T00:40:49.471Z,9.30
2018-07-12T00:43:17.177Z,9.30
2018-07-12T00:45:45.108Z,9.20
2018-07-12T00:48:12.779Z,9.20
2018-07-12T00:50:40.056Z,9.10
2018-07-12T00:53:07.404Z,9.10
2018-07-12T00:55:34.931Z,9.00
2018-07-12T00:58:02.565Z,9.00
2018-07-12T01:00:30.172Z,9.00
2018-07-12T01:02:57.515Z,9.00
2018-07-12T01:05:25.200Z,9.00
2018-07-12T01:07:52.924Z,9.10
2018-07-12T01:10:20.552Z,9.10
2018-07-12T01:12:47.921Z,9.10
2018-07-12T01:15:15.298Z,9.10
2018-07-12T01:17:42.873Z,9.10
2018-07-12T01:20:10.222Z,9.10
2018-07-12T01:22:37.662Z,9.10
2018-07-12T01:25:05.098Z,9.00
2018-07-12T01:27:32.456Z,9.00
2018-07-12T01:29:59.913Z,8.90
2018-07-12T01:32:27.410Z,8.90
2018-07-12T01:34:54.931Z,8.90
2018-07-12T01:37:22.293Z,8.90
2018-07-12T01:39:49.863Z,8.90
2018-07-12T01:42:17.269Z,9.00
2018-07-12T01:44:44.932Z,9.00
2018-07-12T01:47:12.381Z,9.00
2018-07-12T01:49:39.764Z,9.10
2018-07-12T01:52:07.215Z,9.10
2018-07-12T01:54:34.616Z,9.10
2018-07-12T01:57:02.151Z,9.10
2018-07-12T01:59:29.595Z,9.10
2018-07-12T02:01:56.862Z,9.10
2018-07-12T02:04:24.183Z,9.10
2018-07-12T02:06:51.532Z,9.00
2018-07-12T02:09:18.906Z,9.10
2018-07-12T02:11:46.325Z,9.10
2018-07-12T02:14:13.747Z,9.10
2018-07-12T02:16:41.047Z,9.20
2018-07-12T02:19:08.472Z,9.20
2018-07-12T02:21:35.918Z,9.20
2018-07-12T02:24:03.289Z,9.20
2018-07-12T02:26:30.516Z,9.20
2018-07-12T02:28:57.990Z,9.20
2018-07-12T02:31:25.750Z,9.10
2018-07-12T02:33:53.277Z,9.10
2018-07-12T02:36:20.761Z,9.10
2018-07-12T02:38:48.176Z,9.10
2018-07-12T02:41:15.698Z,9.10
2018-07-12T02:43:43.513Z,9.00
2018-07-12T02:46:11.107Z,9.00
2018-07-12T02:48:38.720Z,8.90
2018-07-12T02:51:06.179Z,8.90
2018-07-12T02:53:33.887Z,8.90
2018-07-12T02:56:01.762Z,8.80
2018-07-12T02:58:29.241Z,8.80
2018-07-12T03:01:02.989Z,8.80
2018-07-12T03:03:30.369Z,8.70
2018-07-12T03:05:57.929Z,8.70
2018-07-12T03:08:25.415Z,8.70
2018-07-12T03:10:52.907Z,8.70
2018-07-12T03:13:20.425Z,8.60
2018-07-12T03:15:48.087Z,8.60
2018-07-12T03:18:15.489Z,8.60
2018-07-12T03:20:43.113Z,8.60
2018-07-12T03:23:10.369Z,8.60
2018-07-12T03:25:37.699Z,8.60
2018-07-12T03:28:05.485Z,8.60
2018-07-12T03:30:33.075Z,8.60
2018-07-12T03:33:01.017Z,8.50
2018-07-12T03:35:28.323Z,8.50
2018-07-12T03:37:55.843Z,8.50
2018-07-12T03:40:23.519Z,8.50
2018-07-12T03:42:51.154Z,8.50
2018-07-12T03:45:18.757Z,8.50
2018-07-12T03:47:46.345Z,8.50
2018-07-12T03:50:14.079Z,8.60
2018-07-12T03:52:41.886Z,8.60
2018-07-12T03:55:10.397Z,8.70
2018-07-12T03:57:37.739Z,8.80
2018-07-12T04:00:05.127Z,8.90
2018-07-12T04:02:32.601Z,8.90
2018-07-12T04:05:00.100Z,9.00
2018-07-12T04:07:27.324Z,9.00
2018-07-12T04:09:54.890Z,9.10
2018-07-12T04:12:22.469Z,9.20
2018-07-12T04:14:50.051Z,9.20
2018-07-12T04:17:21.798Z,9.20
2018-07-12T04:19:49.144Z,9.20
2018-07-12T04:22:16.756Z,9.20
2018-07-12T04:24:44.262Z,9.30
2018-07-12T04:27:11.872Z,9.30
2018-07-12T04:29:39.528Z,9.40
2018-07-12T04:32:07.146Z,9.50
2018-07-12T04:34:34.487Z,9.60
2018-07-12T04:37:01.810Z,9.60
2018-07-12T04:39:29.384Z,9.60
2018-07-12T04:41:56.766Z,9.70
2018-07-12T04:44:24.638Z,9.70
2018-07-12T04:46:52.422Z,9.80
2018-07-12T04:49:20.463Z,9.80
2018-07-12T04:51:48.008Z,9.80
2018-07-12T04:54:15.757Z,9.80
2018-07-12T04:56:43.398Z,9.90
2018-07-12T04:59:10.840Z,9.90
2018-07-12T05:01:38.436Z,10.00
2018-07-12T05:04:05.947Z,10.10
2018-07-12T05:06:33.608Z,10.20
2018-07-12T05:09:01.080Z,10.30
2018-07-12T05:11:29.086Z,10.40
2018-07-12T05:13:56.427Z,10.50
2018-07-12T05:16:24.116Z,10.60
2018-07-12T05:18:51.828Z,10.70
2018-07-12T05:21:20.413Z,10.80
2018-07-12T05:23:47.807Z,10.80
2018-07-12T05:26:15.177Z,10.90
2018-07-12T05:28:42.728Z,11.00
2018-07-12T05:31:10.798Z,11.10
2018-07-12T05:33:38.211Z,11.10
2018-07-12T05:36:10.766Z,11.20
2018-07-12T05:38:38.788Z,11.20
2018-07-12T05:41:07.172Z,11.30
2018-07-12T05:43:35.405Z,11.30
2018-07-12T05:46:04.058Z,11.30
2018-07-12T05:48:32.242Z,11.40
2018-07-12T05:51:00.606Z,11.40
2018-07-12T05:53:28.749Z,11.50
2018-07-12T05:55:57.215Z,11.50
2018-07-12T05:58:25.761Z,11.60
2018-07-12T06:00:53.978Z,11.60
2018-07-12T06:03:22.030Z,11.70
2018-07-12T06:05:51.269Z,11.80
2018-07-12T06:08:19.269Z,11.80
2018-07-12T06:10:47.381Z,11.90
2018-07-12T06:13:15.463Z,12.00
2018-07-12T06:15:43.851Z,12.10
2018-07-12T06:18:12.736Z,12.20
2018-07-12T06:20:40.974Z,12.40
2018-07-12T06:23:09.066Z,12.60
2018-07-12T06:25:37.296Z,12.70
2018-07-12T06:28:05.441Z,13.00
2018-07-12T06:30:33.431Z,13.20
2018-07-12T06:33:01.755Z,13.30
2018-07-12T06:35:30.191Z,13.50
2018-07-12T06:37:58.300Z,13.50
2018-07-12T06:40:26.241Z,13.50
2018-07-12T06:42:54.279Z,13.50
2018-07-12T06:45:22.705Z,13.60
2018-07-12T06:47:50.670Z,13.60
2018-07-12T06:50:18.818Z,13.60
2018-07-12T06:52:46.799Z,13.60
2018-07-12T06:55:14.675Z,13.70
2018-07-12T06:57:42.657Z,13.70
2018-07-12T07:00:10.444Z,13.70
2018-07-12T07:02:39.327Z,13.70
2018-07-12T07:05:07.453Z,13.70
2018-07-12T07:07:35.319Z,13.70
2018-07-12T07:10:03.560Z,13.70
2018-07-12T07:12:31.392Z,13.80
2018-07-12T07:15:00.416Z,13.70
2018-07-12T07:17:28.616Z,13.80
2018-07-12T07:19:57.390Z,13.80
2018-07-12T07:22:25.689Z,13.80
2018-07-12T07:24:53.868Z,13.70
2018-07-12T07:27:22.175Z,13.70
2018-07-12T07:29:50.261Z,13.70
2018-07-12T07:32:18.341Z,13.70
2018-07-12T07:34:46.605Z,13.70
2018-07-12T07:37:15.277Z,13.70
2018-07-12T07:39:44.005Z,13.70
2018-07-12T07:42:12.086Z,13.70
2018-07-12T07:44:40.437Z,13.70
2018-07-12T07:47:08.449Z,13.70
2018-07-12T07:49:37.614Z,13.80
2018-07-12T07:52:05.987Z,13.80
2018-07-12T07:54:34.431Z,13.80
2018-07-12T07:57:02.791Z,13.80
2018-07-12T07:59:31.472Z,13.80
2018-07-12T08:01:59.531Z,13.80
2018-07-12T08:04:28.135Z,13.80
2018-07-12T08:06:56.523Z,13.80
2018-07-12T08:09:24.316Z,13.80
2018-07-12T08:11:53.353Z,13.80
2018-07-12T08:14:21.777Z,13.80
2018-07-12T08:16:50.343Z,13.80
2018-07-12T08:19:19.495Z,13.90
2018-07-12T08:21:48.321Z,13.90
2018-07-12T08:24:17.459Z,13.90
2018-07-12T08:26:45.727Z,13.90
2018-07-12T08:29:14.209Z,13.90
2018-07-12T08:31:43.587Z,13.90
2018-07-12T08:34:12.023Z,14.00
2018-07-12T08:36:40.522Z,14.00
2018-07-12T08:39:08.486Z,14.10
2018-07-12T08:41:37.335Z,14.10
2018-07-12T08:44:06.086Z,14.20
2018-07-12T08:46:34.682Z,14.30
2018-07-12T08:49:02.859Z,14.40
2018-07-12T08:51:30.981Z,14.50
2018-07-12T08:53:59.796Z,14.60
2018-07-12T08:56:28.204Z,14.60
2018-07-12T08:58:56.354Z,14.70
2018-07-12T09:01:24.769Z,14.70
2018-07-12T09:03:53.974Z,14.80
2018-07-12T09:06:22.370Z,14.80
2018-07-12T09:08:50.467Z,14.90
2018-07-12T09:11:18.429Z,15.00
2018-07-12T09:13:46.386Z,15.00
2018-07-12T09:16:14.462Z,14.90
2018-07-12T09:18:42.274Z,14.80
2018-07-12T09:21:10.025Z,14.70
2018-07-12T09:23:38.187Z,14.60
2018-07-12T09:26:06.544Z,14.60
2018-07-12T09:28:34.927Z,14.60
2018-07-12T09:31:03.074Z,14.60
2018-07-12T09:33:31.418Z,14.70
2018-07-12T09:35:59.157Z,14.80
2018-07-12T09:38:33.429Z,14.80
2018-07-12T09:41:01.376Z,14.90
2018-07-12T09:43:30.812Z,14.90
2018-07-12T09:45:58.872Z,14.90
2018-07-12T09:48:26.992Z,15.00
2018-07-12T09:50:55.004Z,15.00
2018-07-12T09:53:24.016Z,15.00
2018-07-12T09:55:52.459Z,15.00
2018-07-12T09:58:30.093Z,15.00
2018-07-12T10:01:03.260Z,15.00
2018-07-12T10:03:36.634Z,14.90
2018-07-12T10:06:10.258Z,14.90
2018-07-12T10:08:43.574Z,14.80
2018-07-12T10:13:18.202Z,14.80
2018-07-12T10:15:51.288Z,14.80
2018-07-12T10:18:23.774Z,14.80
2018-07-12T10:20:52.196Z,14.80
2018-07-12T10:23:20.598Z,14.70
2018-07-12T10:25:48.449Z,14.70
2018-07-12T10:28:16.330Z,14.70
2018-07-12T10:30:44.311Z,14.60
2018-07-12T10:33:12.750Z,14.60
2018-07-12T10:35:40.652Z,14.60
2018-07-12T10:38:08.759Z,14.60
2018-07-12T10:40:36.565Z,14.60
2018-07-12T10:43:04.889Z,14.50
2018-07-12T10:45:33.066Z,14.50
2018-07-12T10:48:01.280Z,14.50
2018-07-12T10:50:29.762Z,14.50
2018-07-12T10:52:57.532Z,14.50
2018-07-12T10:55:25.657Z,14.50
2018-07-12T10:57:53.925Z,14.50
2018-07-12T11:00:21.826Z,14.50
2018-07-12T11:02:49.911Z,14.40
2018-07-12T11:05:18.165Z,14.30
2018-07-12T11:07:45.930Z,14.30
2018-07-12T11:10:14.752Z,14.20
2018-07-12T11:12:42.935Z,14.10
2018-07-12T11:15:10.946Z,14.10
2018-07-12T11:17:38.891Z,14.10
2018-07-12T11:20:06.709Z,14.00
2018-07-12T11:22:35.005Z,13.90
2018-07-12T11:25:02.981Z,14.00
2018-07-12T11:27:30.959Z,13.90
2018-07-12T11:29:59.465Z,14.00
2018-07-12T11:32:27.796Z,14.00
2018-07-12T11:34:55.836Z,14.00
2018-07-12T11:37:26.891Z,14.10
2018-07-12T11:39:55.849Z,14.10
2018-07-12T11:42:23.757Z,14.10
2018-07-12T11:44:51.804Z,14.00
2018-07-12T11:47:20.388Z,14.10
2018-07-12T11:49:48.802Z,14.10
2018-07-12T11:52:16.989Z,14.20
2018-07-12T11:54:44.787Z,14.20
2018-07-12T11:57:12.968Z,14.20
2018-07-12T11:59:41.361Z,14.30
2018-07-12T12:02:09.944Z,14.40
2018-07-12T12:04:37.719Z,14.50
2018-07-12T12:07:05.827Z,14.50
2018-07-12T12:09:34.495Z,14.50
2018-07-12T12:12:02.668Z,14.50
2018-07-12T12:14:31.289Z,14.50
2018-07-12T12:16:59.023Z,14.60
2018-07-12T12:19:27.043Z,14.70
2018-07-12T12:21:55.395Z,14.70
2018-07-12T12:24:23.433Z,14.90
2018-07-12T12:26:51.684Z,15.00
2018-07-12T12:29:20.024Z,15.20
2018-07-12T12:31:48.061Z,15.50
2018-07-12T12:34:16.465Z,15.60
2018-07-12T12:36:44.684Z,15.90
2018-07-12T12:39:13.414Z,16.10
2018-07-12T12:41:42.156Z,16.30
2018-07-12T12:48:45.974Z,17.00
2018-07-12T12:51:14.168Z,17.50
2018-07-12T12:53:42.877Z,17.50
2018-07-12T12:56:10.953Z,17.60
2018-07-12T12:58:40.068Z,17.60
2018-07-12T13:01:09.188Z,17.50
2018-07-12T13:03:37.248Z,17.50
2018-07-12T13:06:05.601Z,17.40
2018-07-12T13:08:34.403Z,17.30
2018-07-12T13:11:04.091Z,17.20
2018-07-12T13:13:32.101Z,17.00
2018-07-12T13:16:00.651Z,16.90
2018-07-12T13:18:28.769Z,16.80
2018-07-12T13:20:57.631Z,16.60
2018-07-12T13:23:25.783Z,16.50
2018-07-12T13:25:53.937Z,16.30
2018-07-12T13:28:21.817Z,16.30
2018-07-12T13:30:50.905Z,16.30
2018-07-12T13:33:18.777Z,16.20
2018-07-12T13:35:47.159Z,16.40
2018-07-12T13:38:15.190Z,16.50
2018-07-12T13:40:43.081Z,16.70
2018-07-12T13:43:11.339Z,16.80
2018-07-12T13:45:39.477Z,16.90
2018-07-12T13:48:08.223Z,16.90
2018-07-12T13:50:36.517Z,16.80
2018-07-12T13:53:04.429Z,16.70
2018-07-12T13:55:32.377Z,16.60
2018-07-12T13:58:01.335Z,16.50
2018-07-12T14:00:29.273Z,16.40
2018-07-12T14:02:57.307Z,16.30
2018-07-12T14:05:25.230Z,16.30
2018-07-12T14:07:53.805Z,16.40
2018-07-12T14:10:22.183Z,16.50
2018-07-12T14:12:50.185Z,16.60
2018-07-12T14:15:18.375Z,16.60
2018-07-12T14:17:46.742Z,16.60
2018-07-12T14:20:14.660Z,16.50
2018-07-12T14:22:43.069Z,16.50
2018-07-12T14:25:11.808Z,16.40
2018-07-12T14:27:40.306Z,16.40
2018-07-12T14:30:08.690Z,16.40
2018-07-12T14:32:37.426Z,16.40
2018-07-12T14:35:05.686Z,16.40
2018-07-12T14:37:33.833Z,16.40
2018-07-12T14:40:01.747Z,16.50
2018-07-12T14:42:30.112Z,16.50
2018-07-12T14:44:58.969Z,16.60
2018-07-12T14:47:27.261Z,16.70
2018-07-12T14:49:56.122Z,16.90
2018-07-12T14:52:24.623Z,17.10
2018-07-12T14:54:52.737Z,17.20
2018-07-12T14:57:21.196Z,17.40
2018-07-12T14:59:49.472Z,17.70
2018-07-12T15:02:17.317Z,18.10
2018-07-12T15:04:45.235Z,18.40
2018-07-12T15:07:13.734Z,18.60
2018-07-12T15:09:42.991Z,18.70
2018-07-12T15:12:11.084Z,18.60
2018-07-12T15:14:39.620Z,18.60
2018-07-12T15:17:07.839Z,18.70
2018-07-12T15:19:36.561Z,18.70
2018-07-12T15:22:05.399Z,18.70
2018-07-12T15:24:33.336Z,18.70
2018-07-12T15:27:01.518Z,18.70
2018-07-12T15:29:29.552Z,18.60
2018-07-12T15:31:58.158Z,18.70
2018-07-12T15:34:26.365Z,18.70
2018-07-12T15:36:54.288Z,18.70
2018-07-12T15:39:22.023Z,18.70
2018-07-12T15:41:49.874Z,18.70
2018-07-12T15:44:21.469Z,18.70
2018-07-12T15:46:50.186Z,18.80
2018-07-12T15:49:18.899Z,18.80
2018-07-12T15:51:47.719Z,18.80
2018-07-12T15:54:15.871Z,18.90
2018-07-12T15:56:44.134Z,19.00
2018-07-12T15:59:12.348Z,19.10
2018-07-12T16:01:40.142Z,19.20
2018-07-12T16:04:08.198Z,19.20
2018-07-12T16:06:36.176Z,19.20
2018-07-12T16:09:05.685Z,19.30
2018-07-12T16:11:33.997Z,19.30
2018-07-12T16:14:02.754Z,19.20
2018-07-12T16:16:31.415Z,19.20
2018-07-12T16:18:59.426Z,19.20
2018-07-12T16:21:27.529Z,19.20
2018-07-12T16:23:56.267Z,19.20
2018-07-12T16:26:24.136Z,19.20
2018-07-12T16:28:52.351Z,19.20
2018-07-12T16:31:20.862Z,19.30
2018-07-12T16:33:49.045Z,19.20
2018-07-12T16:36:17.236Z,19.30
2018-07-12T16:38:46.089Z,19.30
2018-07-12T16:41:14.528Z,19.30
2018-07-12T16:43:43.016Z,19.40
2018-07-12T16:46:11.602Z,19.40
2018-07-12T16:48:39.910Z,19.40
2018-07-12T16:51:08.176Z,19.50
2018-07-12T16:53:36.475Z,19.50
2018-07-12T16:56:04.657Z,19.40
2018-07-12T16:58:33.132Z,19.40
2018-07-12T17:01:01.913Z,19.30
2018-07-12T17:03:29.867Z,19.20
2018-07-12T17:05:58.071Z,19.10
2018-07-12T17:08:26.475Z,19.00
2018-07-12T17:10:54.589Z,18.90
2018-07-12T17:13:23.633Z,18.80
2018-07-12T17:15:52.097Z,18.60
2018-07-12T17:18:21.300Z,18.60
2018-07-12T17:20:49.479Z,18.50
2018-07-12T17:23:17.938Z,18.30
2018-07-12T17:25:46.505Z,18.20
2018-07-12T17:28:14.951Z,18.10
2018-07-12T17:30:43.680Z,18.00
2018-07-12T17:33:12.959Z,17.90
2018-07-12T17:35:41.105Z,17.80
2018-07-12T17:38:09.356Z,17.80
2018-07-12T17:40:37.464Z,17.70
2018-07-12T17:43:06.645Z,17.60
2018-07-12T17:45:35.223Z,17.50
2018-07-12T17:48:03.747Z,17.50
2018-07-12T17:50:32.413Z,17.50
2018-07-12T17:53:00.803Z,17.40
2018-07-12T17:55:28.737Z,17.40
2018-07-12T17:57:57.257Z,17.30
2018-07-12T18:00:25.505Z,17.30
2018-07-12T18:02:53.781Z,17.20
2018-07-12T18:05:23.169Z,17.20
2018-07-12T18:07:51.357Z,17.20
2018-07-12T18:10:20.104Z,17.30
2018-07-12T18:12:49.214Z,17.30
2018-07-12T18:15:17.341Z,17.30
2018-07-12T18:17:45.499Z,17.30
2018-07-12T18:20:14.230Z,17.40
2018-07-12T18:22:43.353Z,17.30
2018-07-12T18:25:12.273Z,17.30
2018-07-12T18:27:41.014Z,17.30
2018-07-12T18:30:09.950Z,17.20
2018-07-12T18:32:38.647Z,17.20
2018-07-12T18:35:07.149Z,17.20
2018-07-12T18:37:38.863Z,17.10
2018-07-12T18:40:07.105Z,17.10
2018-07-12T18:42:35.318Z,17.10
2018-07-12T18:45:03.949Z,17.00
2018-07-12T18:47:32.515Z,17.00
2018-07-12T18:50:01.558Z,16.90
2018-07-12T18:52:30.101Z,16.90
2018-07-12T18:54:58.303Z,16.90
2018-07-12T18:57:26.501Z,16.90
2018-07-12T18:59:55.313Z,16.80
2018-07-12T19:02:24.533Z,16.80
2018-07-12T19:04:53.310Z,16.80
2018-07-12T19:07:21.465Z,16.70
2018-07-12T19:09:50.632Z,16.70
2018-07-12T19:12:18.519Z,16.70
2018-07-12T19:14:47.361Z,16.70
2018-07-12T19:17:15.941Z,16.60
2018-07-12T19:19:44.305Z,16.60
2018-07-12T19:22:13.464Z,16.60
2018-07-12T19:24:41.827Z,16.50
2018-07-12T19:27:10.277Z,16.50
2018-07-12T19:29:39.577Z,16.50
2018-07-12T19:32:07.918Z,16.40
2018-07-12T19:34:46.040Z,16.30
2018-07-12T19:37:15.204Z,16.30
2018-07-12T19:39:43.785Z,16.20
2018-07-12T19:42:12.506Z,16.20
2018-07-12T19:44:40.833Z,16.20
2018-07-12T19:47:09.524Z,16.10
2018-07-12T19:49:38.342Z,16.10
2018-07-12T19:52:07.153Z,16.00
2018-07-12T19:54:36.303Z,15.90
2018-07-12T19:57:06.667Z,15.90
2018-07-12T19:59:36.144Z,15.80
2018-07-12T20:02:04.898Z,15.80
2018-07-12T20:04:33.837Z,15.70
2018-07-12T20:07:03.323Z,15.60
2018-07-12T20:09:32.253Z,15.50
2018-07-12T20:12:01.151Z,15.50
2018-07-12T20:14:30.761Z,15.40
2018-07-12T20:16:59.141Z,15.30
2018-07-12T20:19:28.173Z,15.30
2018-07-12T20:21:58.255Z,15.20
2018-07-12T20:24:28.029Z,15.20
2018-07-12T20:26:57.181Z,15.20
2018-07-12T20:29:25.062Z,15.10
2018-07-12T20:31:53.165Z,15.10
2018-07-12T20:34:21.691Z,15.10
2018-07-12T20:36:49.976Z,15.10
2018-07-12T20:39:18.525Z,15.10
2018-07-12T20:41:47.281Z,15.10
2018-07-12T20:44:16.239Z,15.10
2018-07-12T20:46:45.599Z,15.10
2018-07-12T20:49:13.722Z,15.00
2018-07-12T20:51:41.805Z,15.00
2018-07-12T20:54:09.801Z,15.00
2018-07-12T20:56:38.816Z,15.00
2018-07-12T20:59:06.927Z,15.00
2018-07-12T21:01:35.415Z,15.00
2018-07-12T21:04:03.391Z,15.00
2018-07-12T21:06:32.447Z,15.00
2018-07-12T21:09:00.509Z,15.00
2018-07-12T21:11:28.620Z,15.00
2018-07-12T21:13:57.038Z,15.00
2018-07-12T21:16:25.330Z,15.00
2018-07-12T21:18:53.494Z,14.90
2018-07-12T21:21:22.150Z,15.00
2018-07-12T21:23:50.257Z,14.90
2018-07-12T21:26:18.463Z,14.90
2018-07-12T21:28:46.580Z,14.90
2018-07-12T21:31:14.424Z,14.90
2018-07-12T21:33:42.403Z,14.90
2018-07-12T21:36:10.502Z,14.90
2018-07-12T21:38:38.279Z,14.90
2018-07-12T21:41:06.365Z,14.90
2018-07-12T21:43:34.505Z,14.90
2018-07-12T21:46:02.407Z,14.80
2018-07-12T21:48:30.547Z,14.80
2018-07-12T21:50:58.462Z,14.80
2018-07-12T21:53:27.893Z,14.80
2018-07-12T21:55:56.066Z,14.70
2018-07-12T21:58:24.241Z,14.70
2018-07-12T22:00:52.379Z,14.80
2018-07-12T22:03:20.573Z,14.70
2018-07-12T22:05:48.419Z,14.70
2018-07-12T22:08:20.603Z,14.70
2018-07-12T22:10:49.714Z,14.60
2018-07-12T22:13:18.371Z,14.60
2018-07-12T22:15:46.365Z,14.60
2018-07-12T22:18:14.340Z,14.60
2018-07-12T22:20:42.529Z,14.50
2018-07-12T22:23:10.527Z,14.50
2018-07-12T22:25:38.938Z,14.50
2018-07-12T22:28:07.618Z,14.50
2018-07-12T22:30:35.901Z,14.50
2018-07-12T22:33:04.809Z,14.50
2018-07-12T22:35:33.589Z,14.50
2018-07-12T22:38:02.581Z,14.50
2018-07-12T22:40:31.280Z,14.50
2018-07-12T22:42:59.812Z,14.50
2018-07-12T22:45:28.246Z,14.50
2018-07-12T22:47:56.512Z,14.50
2018-07-12T22:50:25.044Z,14.40
2018-07-12T22:52:53.684Z,14.40
2018-07-12T22:55:21.849Z,14.40
2018-07-12T22:57:49.900Z,14.40
2018-07-12T23:00:18.648Z,14.40
2018-07-12T23:02:46.482Z,14.40
2018-07-12T23:05:14.899Z,14.40
2018-07-12T23:07:43.014Z,14.30
2018-07-12T23:10:11.462Z,14.40
2018-07-12T23:12:39.776Z,14.30
2018-07-12T23:15:07.794Z,14.30
2018-07-12T23:17:35.966Z,14.30
2018-07-12T23:20:04.411Z,14.30
2018-07-12T23:22:32.572Z,14.30
2018-07-12T23:25:00.581Z,14.20
2018-07-12T23:27:28.549Z,14.20
2018-07-12T23:29:56.689Z,14.20
2018-07-12T23:32:25.089Z,14.20
2018-07-12T23:34:53.093Z,14.20
2018-07-12T23:37:21.019Z,14.20
2018-07-12T23:39:49.382Z,14.20
2018-07-12T23:42:17.447Z,14.20
2018-07-12T23:44:47.070Z,14.10
2018-07-12T23:47:15.279Z,14.10
2018-07-12T23:49:43.516Z,14.10
2018-07-12T23:52:11.615Z,14.00
2018-07-12T23:54:40.166Z,14.00
2018-07-12T23:57:08.386Z,14.00
2018-07-12T23:59:36.322Z,13.90
